Milwaukee, Wisconsin
Traffic Map
Current Weather Conditions
Milwaukee, Wisconsin
Broken Clouds
Broken Clouds
39°
Feels Like: 31°
Wind Chill: 31° Ceiling: 9000
Heat Index: 39° Visibility: 10mi
Dew Point: 29° Wind: 15mph
Humidity: 67% Direction: 20° (NNE)
Pressure: 29.84in Gusts: 25mph
Raw Report DataKMKE 252252Z 02013G22KT 10SM BKN090 BKN200 04/M02 A2984 RMK AO2 SLP111 T00391017
Traffic Incident Summary
Active as of:
Severity:
Category:
InformationThere was an issue retrieving the traffic information for this location. Please try a different location or try again shortly.
Advertisements
Track Severe Weather on mobile